createdAt,value
2022-12-20T00:00:52.405Z,100839.22
2022-12-20T00:03:20.201Z,100837.25
2022-12-20T00:05:47.369Z,100838.97
2022-12-20T00:08:13.866Z,100819.94
2022-12-20T00:10:42.998Z,100825.38
2022-12-20T00:13:09.962Z,100817.44
2022-12-20T00:15:36.657Z,100797.91
2022-12-20T00:18:03.848Z,100815.31
2022-12-20T00:20:30.617Z,100828.91
2022-12-20T00:22:57.068Z,100813.19
2022-12-20T00:25:23.561Z,100764.78
2022-12-20T00:27:50.101Z,100805.56
2022-12-20T00:30:17.364Z,100828.03
2022-12-20T00:32:44.541Z,100781.28
2022-12-20T00:35:11.830Z,100820.97
2022-12-20T00:37:38.333Z,100821.56
2022-12-20T00:40:06.064Z,100803.59
2022-12-20T00:42:33.160Z,100823.56
2022-12-20T00:44:59.604Z,100764.56
2022-12-20T00:47:26.019Z,100768.16
2022-12-20T00:49:52.333Z,100787.03
2022-12-20T00:52:18.848Z,100805.59
2022-12-20T00:54:45.333Z,100800.50
2022-12-20T00:57:11.811Z,100793.44
2022-12-20T00:59:38.221Z,100796.06
2022-12-20T01:02:04.695Z,100785.56
2022-12-20T01:04:31.240Z,100769.28
2022-12-20T01:06:57.605Z,100769.34
2022-12-20T01:09:24.036Z,100777.94
2022-12-20T01:11:50.360Z,100777.09
2022-12-20T01:14:17.012Z,100777.09
2022-12-20T01:16:47.645Z,100803.38
2022-12-20T01:19:17.675Z,100781.66
2022-12-20T01:21:44.955Z,100779.34
2022-12-20T01:24:13.105Z,100799.19
2022-12-20T01:28:20.394Z,100773.47
2022-12-20T01:30:46.850Z,100787.38
2022-12-20T01:33:13.248Z,100781.38
2022-12-20T01:35:39.695Z,100645.28
2022-12-20T01:38:06.033Z,100772.09
2022-12-20T01:40:32.348Z,100779.78
2022-12-20T01:42:58.788Z,100776.22
2022-12-20T01:45:30.548Z,100789.91
2022-12-20T01:47:59.579Z,100772.81
2022-12-20T01:50:26.641Z,100779.66
2022-12-20T01:52:53.277Z,100623.88
2022-12-20T01:55:26.200Z,100765.47
2022-12-20T01:57:59.372Z,100741.31
2022-12-20T02:00:26.153Z,100745.13
2022-12-20T02:02:52.684Z,100746.69
2022-12-20T02:05:22.504Z,100748.09
2022-12-20T02:07:54.252Z,100750.97
2022-12-20T02:10:26.281Z,100760.31
2022-12-20T02:13:03.911Z,100763.06
2022-12-20T02:15:51.723Z,100772.28
2022-12-20T02:18:25.416Z,100758.09
2022-12-20T02:21:14.656Z,100755.06
2022-12-20T02:23:49.938Z,100732.41
2022-12-20T02:26:35.115Z,100762.53
2022-12-20T02:29:33.103Z,100761.00
2022-12-20T02:32:16.065Z,100747.91
2022-12-20T02:34:43.440Z,100756.59
2022-12-20T02:37:10.751Z,100724.88
2022-12-20T02:39:40.241Z,100770.28
2022-12-20T02:42:09.961Z,100729.09
2022-12-20T02:45:00.181Z,100769.63
2022-12-20T02:47:36.701Z,100774.03
2022-12-20T02:50:04.780Z,100747.22
2022-12-20T02:52:32.478Z,100730.88
2022-12-20T02:55:00.430Z,100772.41
2022-12-20T02:57:57.853Z,100770.00
2022-12-20T03:00:32.134Z,100708.88
2022-12-20T03:03:17.978Z,100758.69
2022-12-20T03:05:46.673Z,100742.38
2022-12-20T03:08:13.086Z,100753.59
2022-12-20T03:10:39.682Z,100724.19
2022-12-20T03:13:06.081Z,100727.47
2022-12-20T03:15:32.568Z,100713.56
2022-12-20T03:17:58.906Z,100707.50
2022-12-20T03:20:25.426Z,100615.34
2022-12-20T03:22:51.782Z,100570.59
2022-12-20T03:25:18.228Z,100726.91
2022-12-20T03:27:44.967Z,100722.25
2022-12-20T03:30:11.958Z,100708.66
2022-12-20T03:32:40.948Z,100752.69
2022-12-20T03:35:08.065Z,100751.66
2022-12-20T03:37:34.421Z,100751.84
2022-12-20T03:40:00.757Z,100695.50
2022-12-20T03:42:27.572Z,100661.19
2022-12-20T03:44:54.061Z,100732.09
2022-12-20T03:47:20.487Z,100709.66
2022-12-20T03:49:46.871Z,100683.84
2022-12-20T03:52:15.208Z,100751.03
2022-12-20T03:54:41.606Z,100716.59
2022-12-20T03:57:08.025Z,100721.06
2022-12-20T03:59:35.548Z,100624.66
2022-12-20T04:02:02.773Z,100751.91
2022-12-20T04:04:29.785Z,100700.31
2022-12-20T04:06:56.425Z,100695.22
2022-12-20T04:09:23.022Z,100728.88
2022-12-20T04:11:49.529Z,100755.66
2022-12-20T04:14:15.913Z,100746.31
2022-12-20T04:16:42.390Z,100719.56
2022-12-20T04:19:08.839Z,100709.97
2022-12-20T04:21:35.960Z,100725.72
2022-12-20T04:24:03.289Z,100701.97
2022-12-20T04:26:30.202Z,100726.16
2022-12-20T04:28:57.710Z,100706.81
2022-12-20T04:31:24.753Z,100725.50
2022-12-20T04:33:51.812Z,100667.66
2022-12-20T04:36:18.619Z,100720.66
2022-12-20T04:38:45.042Z,100712.06
2022-12-20T04:41:21.963Z,100689.03
2022-12-20T04:43:53.130Z,100712.75
2022-12-20T04:46:19.800Z,100653.13
2022-12-20T04:48:57.170Z,100634.13
2022-12-20T04:51:25.428Z,100700.25
2022-12-20T04:53:51.841Z,100684.97
2022-12-20T04:56:20.558Z,100678.19
2022-12-20T04:58:48.921Z,100697.47
2022-12-20T05:01:15.963Z,100671.84
2022-12-20T05:03:42.945Z,100661.34
2022-12-20T05:06:10.077Z,100648.13
2022-12-20T05:08:36.782Z,100633.34
2022-12-20T05:11:04.505Z,100661.13
2022-12-20T05:13:31.488Z,100684.06
2022-12-20T05:15:58.412Z,100662.66
2022-12-20T05:18:25.870Z,100692.00
2022-12-20T05:21:15.266Z,100625.56
2022-12-20T05:24:00.848Z,100646.94
2022-12-20T05:26:30.660Z,100615.97
2022-12-20T05:28:57.103Z,100647.34
2022-12-20T05:31:23.495Z,100647.00
2022-12-20T05:33:49.880Z,100655.53
2022-12-20T05:36:16.243Z,100653.72
2022-12-20T05:38:42.762Z,100651.16
2022-12-20T05:41:09.411Z,100606.59
2022-12-20T05:43:35.774Z,100588.38
2022-12-20T05:46:02.177Z,100603.84
2022-12-20T05:48:28.703Z,100662.19
2022-12-20T05:50:55.509Z,100629.66
2022-12-20T05:53:21.958Z,100669.22
2022-12-20T05:55:50.604Z,100617.72
2022-12-20T05:58:17.175Z,100641.16
2022-12-20T06:00:44.453Z,100681.69
2022-12-20T06:03:12.032Z,100620.03
2022-12-20T06:05:39.087Z,100656.19
2022-12-20T06:08:06.857Z,100660.16
2022-12-20T06:10:37.050Z,100651.41
2022-12-20T06:13:04.408Z,100615.59
2022-12-20T06:15:31.525Z,100633.56
2022-12-20T06:17:58.002Z,100648.91
2022-12-20T06:20:47.498Z,100607.69
2022-12-20T06:23:14.142Z,100536.00
2022-12-20T06:25:40.525Z,100605.03
2022-12-20T06:28:07.607Z,100526.66
2022-12-20T06:30:38.581Z,100588.38
2022-12-20T06:33:05.271Z,100535.19
2022-12-20T06:35:32.342Z,100454.47
2022-12-20T06:37:58.755Z,100421.50
2022-12-20T06:40:25.126Z,100552.25
2022-12-20T06:42:51.560Z,100530.00
2022-12-20T06:45:17.973Z,100599.72
2022-12-20T06:47:46.985Z,100571.06
2022-12-20T06:50:13.532Z,100551.47
2022-12-20T06:52:39.878Z,100610.81
2022-12-20T06:55:06.497Z,100574.59
2022-12-20T06:57:33.240Z,100612.69
2022-12-20T06:59:59.619Z,100483.59
2022-12-20T07:02:27.894Z,100609.09
2022-12-20T07:04:54.885Z,100563.34
2022-12-20T07:07:21.325Z,100540.97
2022-12-20T07:09:47.737Z,100583.72
2022-12-20T07:12:18.153Z,100554.47
2022-12-20T07:14:44.549Z,100468.34
2022-12-20T07:17:11.099Z,100553.31
2022-12-20T07:19:37.644Z,100478.72
2022-12-20T07:22:05.545Z,100431.25
2022-12-20T07:24:33.086Z,100581.59
2022-12-20T07:26:59.660Z,100536.84
2022-12-20T07:29:26.227Z,100566.03
2022-12-20T07:31:53.091Z,100474.81
2022-12-20T07:34:19.529Z,100560.03
2022-12-20T07:36:46.013Z,100579.06
2022-12-20T07:39:12.380Z,100599.75
2022-12-20T07:41:38.811Z,100555.03
2022-12-20T07:44:06.208Z,100590.16
2022-12-20T07:46:33.815Z,100577.25
2022-12-20T07:49:00.319Z,100504.16
2022-12-20T07:51:31.469Z,100583.25
2022-12-20T07:54:04.922Z,100621.00
2022-12-20T07:56:40.734Z,100539.81
2022-12-20T07:59:10.518Z,100499.72
2022-12-20T08:01:37.221Z,100585.06
2022-12-20T08:04:08.828Z,100488.19
2022-12-20T08:06:37.386Z,100561.16
2022-12-20T08:09:06.026Z,100589.22
2022-12-20T08:11:34.649Z,100590.94
2022-12-20T08:14:01.657Z,100567.69
2022-12-20T08:16:29.281Z,100593.25
2022-12-20T08:18:55.962Z,100537.38
2022-12-20T08:21:22.445Z,100568.38
2022-12-20T08:23:48.819Z,100583.06
2022-12-20T08:26:15.231Z,100576.56
2022-12-20T08:28:41.747Z,100437.91
2022-12-20T08:31:09.965Z,100553.19
2022-12-20T08:33:37.884Z,100559.19
2022-12-20T08:36:11.793Z,100579.75
2022-12-20T08:38:38.909Z,100572.84
2022-12-20T08:41:11.168Z,100596.72
2022-12-20T08:43:38.010Z,100600.00
2022-12-20T08:46:11.219Z,100553.78
2022-12-20T08:48:37.843Z,100517.41
2022-12-20T08:51:09.465Z,100582.88
2022-12-20T08:53:36.658Z,100605.50
2022-12-20T08:56:08.497Z,100594.38
2022-12-20T08:58:35.730Z,100601.97
2022-12-20T09:01:06.886Z,100551.00
2022-12-20T09:03:35.119Z,100546.00
2022-12-20T09:06:06.561Z,100546.81
2022-12-20T09:08:34.408Z,100570.84
2022-12-20T09:11:06.535Z,100546.63
2022-12-20T09:13:36.555Z,100564.34
2022-12-20T09:16:15.760Z,100571.72
2022-12-20T09:18:42.388Z,100504.34
2022-12-20T09:21:10.008Z,100582.97
2022-12-20T09:23:37.342Z,100574.19
2022-12-20T09:26:11.594Z,100524.19
2022-12-20T09:28:41.660Z,100578.69
2022-12-20T09:31:12.061Z,100540.44
2022-12-20T09:33:38.464Z,100571.94
2022-12-20T09:36:07.476Z,100560.78
2022-12-20T09:38:33.882Z,100582.00
2022-12-20T09:41:06.713Z,100444.41
2022-12-20T09:43:33.942Z,100564.44
2022-12-20T09:46:02.858Z,100582.72
2022-12-20T09:48:33.907Z,100510.78
2022-12-20T09:51:42.520Z,100583.09
2022-12-20T09:54:21.005Z,100579.72
2022-12-20T09:56:59.902Z,100444.97
2022-12-20T09:59:27.426Z,100487.13
2022-12-20T10:01:54.019Z,100584.81
2022-12-20T10:04:32.369Z,100565.88
2022-12-20T10:07:01.757Z,100578.88
2022-12-20T10:10:24.531Z,100570.31
2022-12-20T10:13:28.551Z,100565.78
2022-12-20T10:16:07.698Z,100504.19
2022-12-20T10:19:08.752Z,100540.19
2022-12-20T10:22:03.828Z,100552.09
2022-12-20T10:24:32.189Z,100429.91
2022-12-20T10:27:12.561Z,100476.94
2022-12-20T10:29:39.043Z,100450.63
2022-12-20T10:32:13.106Z,100449.81
2022-12-20T10:34:48.538Z,100502.41
2022-12-20T10:37:16.190Z,100546.19
2022-12-20T10:39:51.086Z,100488.38
2022-12-20T10:42:26.106Z,100504.78
2022-12-20T10:44:53.745Z,100522.88
2022-12-20T10:47:39.343Z,100422.31
2022-12-20T10:50:21.075Z,100436.56
2022-12-20T10:53:09.694Z,100517.16
2022-12-20T10:55:41.573Z,100509.75
2022-12-20T10:58:16.096Z,100521.28
2022-12-20T11:00:43.386Z,100487.53
2022-12-20T11:03:19.146Z,100518.66
2022-12-20T11:06:04.432Z,100465.22
2022-12-20T11:08:49.867Z,100514.50
2022-12-20T11:11:36.503Z,100491.72
2022-12-20T11:14:40.216Z,100412.09
2022-12-20T11:17:21.897Z,100501.00
2022-12-20T11:20:08.686Z,100499.63
2022-12-20T11:23:06.487Z,100424.72
2022-12-20T11:25:59.181Z,100495.66
2022-12-20T11:28:50.928Z,100493.84
2022-12-20T11:31:35.630Z,100438.59
2022-12-20T11:34:35.026Z,100476.34
2022-12-20T11:37:10.605Z,100483.03
2022-12-20T11:39:47.336Z,100443.63
2022-12-20T11:42:27.151Z,100358.03
2022-12-20T11:45:09.602Z,100457.53
2022-12-20T11:48:04.566Z,100482.63
2022-12-20T11:50:56.247Z,100482.13
2022-12-20T11:53:32.216Z,100379.97
2022-12-20T11:56:04.830Z,100451.06
2022-12-20T11:58:45.121Z,100478.56
2022-12-20T12:01:21.441Z,100476.63
2022-12-20T12:04:12.621Z,100488.28
2022-12-20T12:06:44.081Z,100485.59
2022-12-20T12:09:24.905Z,100497.00
2022-12-20T12:12:07.934Z,100489.25
2022-12-20T12:15:04.658Z,100498.03
2022-12-20T12:17:44.336Z,100429.28
2022-12-20T12:20:35.105Z,100491.91
2022-12-20T12:23:43.507Z,100472.53
2022-12-20T12:26:24.983Z,100491.19
2022-12-20T12:28:55.894Z,100484.22
2022-12-20T12:31:35.351Z,100410.63
2022-12-20T12:34:26.808Z,100476.50
2022-12-20T12:37:20.573Z,100461.66
2022-12-20T12:40:11.857Z,100461.66
2022-12-20T12:42:56.990Z,100452.06
2022-12-20T12:45:27.973Z,100454.97
2022-12-20T12:48:12.328Z,100459.31
2022-12-20T12:50:45.233Z,100449.00
2022-12-20T12:53:27.262Z,100449.81
2022-12-20T12:56:07.282Z,100340.38
2022-12-20T12:58:46.390Z,100324.28
2022-12-20T13:01:51.855Z,100453.44
2022-12-20T13:04:19.591Z,100445.50
2022-12-20T13:06:48.804Z,100460.91
2022-12-20T13:09:27.701Z,100453.06
2022-12-20T13:12:02.058Z,100455.84
2022-12-20T13:14:29.832Z,100443.19
2022-12-20T13:17:24.104Z,100442.22
2022-12-20T13:19:52.132Z,100451.16
2022-12-20T13:22:24.596Z,100457.88
2022-12-20T13:24:56.911Z,100454.59
2022-12-20T13:27:30.626Z,100449.25
2022-12-20T13:29:59.621Z,100456.97
2022-12-20T13:32:47.870Z,100453.53
2022-12-20T13:35:26.972Z,100446.22
2022-12-20T13:38:40.742Z,100313.63
2022-12-20T13:41:34.802Z,100442.28
2022-12-20T13:44:13.823Z,100446.22
2022-12-20T13:46:53.865Z,100441.97
2022-12-20T13:49:27.469Z,100441.78
2022-12-20T13:52:09.159Z,100436.00
2022-12-20T13:54:40.918Z,100459.56
2022-12-20T13:57:07.780Z,100404.81
2022-12-20T13:59:34.515Z,100422.66
2022-12-20T14:02:05.033Z,100414.59
2022-12-20T14:04:44.963Z,100418.19
2022-12-20T14:07:16.704Z,100336.94
2022-12-20T14:09:46.645Z,100419.13
2022-12-20T14:12:13.601Z,100435.50
2022-12-20T14:14:47.370Z,100413.16
2022-12-20T14:17:32.885Z,100433.59
2022-12-20T14:20:17.141Z,100378.03
2022-12-20T14:23:04.270Z,100379.28
2022-12-20T14:25:41.791Z,100420.84
2022-12-20T14:28:38.089Z,100408.81
2022-12-20T14:31:06.609Z,100331.09
2022-12-20T14:33:41.251Z,100433.59
2022-12-20T14:36:20.312Z,100413.03
2022-12-20T14:38:57.689Z,100419.25
2022-12-20T14:41:31.690Z,100410.53
2022-12-20T14:44:02.125Z,100407.19
2022-12-20T14:46:30.831Z,100325.25
2022-12-20T14:49:16.101Z,100413.53
2022-12-20T14:51:42.774Z,100358.69
2022-12-20T14:55:05.817Z,100405.81
2022-12-20T14:57:23.380Z,100357.53
2022-12-20T15:00:18.960Z,100310.91
2022-12-20T15:02:45.804Z,100400.50
2022-12-20T15:05:35.014Z,100394.75
2022-12-20T15:08:28.889Z,100397.06
2022-12-20T15:11:10.881Z,100389.22
2022-12-20T15:13:38.794Z,100388.72
2022-12-20T15:16:16.760Z,100285.53
2022-12-20T15:18:43.604Z,100378.50
2022-12-20T15:21:33.584Z,100388.72
2022-12-20T15:24:02.236Z,100395.59
2022-12-20T15:26:31.004Z,100342.97
2022-12-20T15:28:57.591Z,100399.00
2022-12-20T15:31:33.026Z,100375.41
2022-12-20T15:34:02.552Z,100364.50
2022-12-20T15:36:29.779Z,100290.63
2022-12-20T15:39:14.129Z,100378.13
2022-12-20T15:41:47.209Z,100379.03
2022-12-20T15:44:16.578Z,100326.53
2022-12-20T15:46:44.233Z,100366.13
2022-12-20T15:49:18.291Z,100390.03
2022-12-20T15:51:47.633Z,100372.91
2022-12-20T15:54:27.429Z,100378.88
2022-12-20T15:56:55.816Z,100387.69
2022-12-20T15:59:58.298Z,100361.91
2022-12-20T16:02:29.139Z,100388.41
2022-12-20T16:04:55.943Z,100367.16
2022-12-20T16:07:22.644Z,100386.22
2022-12-20T16:09:49.077Z,100360.81
2022-12-20T16:12:23.084Z,100252.47
2022-12-20T16:14:49.568Z,100385.84
2022-12-20T16:17:16.459Z,100391.75
2022-12-20T16:19:43.795Z,100362.59
2022-12-20T16:22:22.239Z,100378.41
2022-12-20T16:24:49.276Z,100266.47
2022-12-20T16:27:15.676Z,100271.72
2022-12-20T16:29:42.055Z,100347.22
2022-12-20T16:32:15.511Z,100362.50
2022-12-20T16:34:42.024Z,100373.28
2022-12-20T16:37:08.389Z,100377.91
2022-12-20T16:39:34.751Z,100298.94
2022-12-20T16:42:01.596Z,100320.06
2022-12-20T16:44:28.009Z,100319.78
2022-12-20T16:46:54.404Z,100371.25
2022-12-20T16:49:21.188Z,100339.94
2022-12-20T16:51:48.802Z,100274.81
2022-12-20T16:54:21.618Z,100339.25
2022-12-20T16:56:54.939Z,100332.50
2022-12-20T16:59:25.310Z,100265.25
2022-12-20T17:01:54.456Z,100374.63
2022-12-20T17:04:21.629Z,100358.09
2022-12-20T17:06:48.349Z,100376.97
2022-12-20T17:09:16.222Z,100328.06
2022-12-20T17:11:42.856Z,100374.41
2022-12-20T17:14:13.201Z,100373.13
2022-12-20T17:16:40.781Z,100324.09
2022-12-20T17:19:07.354Z,100308.56
2022-12-20T17:24:29.763Z,100341.13
2022-12-20T17:26:56.116Z,100332.78
2022-12-20T17:29:22.649Z,100327.44
2022-12-20T17:31:49.220Z,100222.59
2022-12-20T17:34:18.736Z,100362.47
2022-12-20T17:36:46.421Z,100354.28
2022-12-20T17:39:13.193Z,100360.19
2022-12-20T17:41:39.761Z,100331.69
2022-12-20T17:44:06.644Z,100326.53
2022-12-20T17:46:33.056Z,100322.59
2022-12-20T17:48:59.436Z,100243.13
2022-12-20T17:51:28.307Z,100357.63
2022-12-20T17:53:57.200Z,100364.47
2022-12-20T17:56:28.669Z,100285.50
2022-12-20T17:58:57.598Z,100343.72
2022-12-20T18:01:30.232Z,100367.78
2022-12-20T18:04:04.152Z,100310.00
2022-12-20T18:06:32.660Z,100358.75
2022-12-20T18:08:59.293Z,100334.16
2022-12-20T18:11:27.589Z,100330.16
2022-12-20T18:13:56.735Z,100348.41
2022-12-20T18:16:25.970Z,100257.38
2022-12-20T18:18:53.481Z,100331.94
2022-12-20T18:21:21.495Z,100287.59
2022-12-20T18:23:48.284Z,100331.31
2022-12-20T18:26:27.176Z,100369.59
2022-12-20T18:28:56.127Z,100354.63
2022-12-20T18:31:25.589Z,100321.81
2022-12-20T18:33:57.776Z,100360.19
2022-12-20T18:36:27.665Z,100233.44
2022-12-20T18:38:54.841Z,100186.31
2022-12-20T18:41:23.913Z,100220.09
2022-12-20T18:43:51.594Z,100293.78
2022-12-20T18:46:22.934Z,100209.34
2022-12-20T18:48:53.920Z,100362.09
2022-12-20T18:51:23.109Z,100272.03
2022-12-20T18:53:51.403Z,100351.25
2022-12-20T18:56:21.810Z,100200.50
2022-12-20T18:58:48.665Z,100344.38
2022-12-20T19:01:18.210Z,100155.84
2022-12-20T19:03:45.081Z,100239.59
2022-12-20T19:06:12.298Z,100349.63
2022-12-20T19:08:39.111Z,100363.97
2022-12-20T19:11:08.002Z,100351.53
2022-12-20T19:13:34.679Z,100363.97
2022-12-20T19:16:03.316Z,100358.47
2022-12-20T19:18:30.307Z,100229.53
2022-12-20T19:21:10.631Z,100365.22
2022-12-20T19:23:38.918Z,100362.25
2022-12-20T19:26:07.427Z,100338.19
2022-12-20T19:28:34.276Z,100259.97
2022-12-20T19:31:09.174Z,100357.81
2022-12-20T19:33:40.623Z,100360.25
2022-12-20T19:36:14.594Z,100172.44
2022-12-20T19:38:45.933Z,100351.16
2022-12-20T19:41:12.619Z,100221.84
2022-12-20T19:43:39.263Z,100168.09
2022-12-20T19:46:06.063Z,100350.78
2022-12-20T19:48:33.510Z,100280.81
2022-12-20T19:51:11.855Z,100274.81
2022-12-20T19:53:44.334Z,100355.53
2022-12-20T19:56:16.612Z,100357.81
2022-12-20T19:58:43.628Z,100235.53
2022-12-20T20:01:11.556Z,100185.25
2022-12-20T20:03:38.577Z,100278.81
2022-12-20T20:06:07.180Z,100266.22
2022-12-20T20:08:34.755Z,100278.34
2022-12-20T20:11:09.072Z,100341.53
2022-12-20T20:13:37.446Z,100326.75
2022-12-20T20:16:04.623Z,100235.78
2022-12-20T20:18:34.264Z,100368.13
2022-12-20T20:21:06.185Z,100374.09
2022-12-20T20:23:32.668Z,100356.16
2022-12-20T20:25:59.867Z,100244.38
2022-12-20T20:28:31.883Z,100313.97
2022-12-20T20:30:59.678Z,100244.44
2022-12-20T20:33:26.305Z,100337.19
2022-12-20T20:35:58.067Z,100348.81
2022-12-20T20:38:25.499Z,100241.59
2022-12-20T20:40:52.192Z,100360.09
2022-12-20T20:43:19.752Z,100356.34
2022-12-20T20:45:46.229Z,100305.22
2022-12-20T20:48:13.192Z,100332.88
2022-12-20T20:50:40.249Z,100343.97
2022-12-20T20:53:07.188Z,100358.34
2022-12-20T20:55:34.522Z,100322.38
2022-12-20T20:58:01.025Z,100320.75
2022-12-20T21:00:29.539Z,100240.91
2022-12-20T21:02:56.469Z,100285.44
2022-12-20T21:08:09.977Z,100352.34
2022-12-20T21:10:37.004Z,100333.59
2022-12-20T21:13:04.760Z,100362.72
2022-12-20T21:15:31.103Z,100247.00
2022-12-20T21:17:57.497Z,100259.72
2022-12-20T21:20:26.219Z,100309.09
2022-12-20T21:22:53.239Z,100314.75
2022-12-20T21:25:19.628Z,100369.88
2022-12-20T21:27:45.958Z,100322.56
2022-12-20T21:30:12.909Z,100369.28
2022-12-20T21:32:39.239Z,100344.97
2022-12-20T21:35:06.338Z,100339.38
2022-12-20T21:37:32.796Z,100335.13
2022-12-20T21:39:59.340Z,100243.22
2022-12-20T21:42:25.840Z,100273.97
2022-12-20T21:44:52.471Z,100343.09
2022-12-20T21:47:19.121Z,100309.59
2022-12-20T21:49:45.894Z,100266.34
2022-12-20T21:52:12.359Z,100317.03
2022-12-20T21:54:38.752Z,100316.06
2022-12-20T21:57:05.108Z,100279.38
2022-12-20T21:59:31.542Z,100271.13
2022-12-20T22:01:58.080Z,100332.38
2022-12-20T22:04:25.679Z,100287.34
2022-12-20T22:06:52.049Z,100265.59
2022-12-20T22:09:18.481Z,100256.34
2022-12-20T22:11:48.399Z,100248.03
2022-12-20T22:14:15.701Z,100330.47
2022-12-20T22:16:42.434Z,100304.66
2022-12-20T22:19:13.035Z,100268.72
2022-12-20T22:21:39.472Z,100274.50
2022-12-20T22:24:06.107Z,100289.31
2022-12-20T22:26:33.614Z,100322.38
2022-12-20T22:29:03.489Z,100274.25
2022-12-20T22:31:30.591Z,100241.91
2022-12-20T22:33:57.704Z,100362.00
2022-12-20T22:36:24.707Z,100325.03
2022-12-20T22:38:52.488Z,100348.63
2022-12-20T22:41:22.341Z,100352.97
2022-12-20T22:43:49.180Z,100357.34
2022-12-20T22:46:17.485Z,100333.56
2022-12-20T22:48:44.001Z,100262.88
2022-12-20T22:51:22.097Z,100362.09
2022-12-20T22:53:49.251Z,100289.97
2022-12-20T22:56:17.355Z,100367.56
2022-12-20T22:58:44.482Z,100360.44
2022-12-20T23:01:12.879Z,100353.81
2022-12-20T23:03:40.090Z,100384.59
2022-12-20T23:06:08.192Z,100346.47
2022-12-20T23:08:36.588Z,100356.75
2022-12-20T23:11:23.034Z,100328.78
2022-12-20T23:14:08.305Z,100346.69
2022-12-20T23:16:37.079Z,100293.38
2022-12-20T23:19:03.536Z,100341.91
2022-12-20T23:21:48.566Z,100376.00
2022-12-20T23:24:15.428Z,100360.78
2022-12-20T23:26:42.631Z,100335.38
2022-12-20T23:29:10.042Z,100382.97
2022-12-20T23:31:36.638Z,100375.72
2022-12-20T23:34:03.849Z,100390.00
2022-12-20T23:36:33.121Z,100385.00
2022-12-20T23:39:00.015Z,100296.22
2022-12-20T23:41:26.519Z,100267.09
2022-12-20T23:43:52.905Z,100264.44
2022-12-20T23:46:19.992Z,100364.31
2022-12-20T23:48:46.511Z,100309.31
2022-12-20T23:51:13.611Z,100286.00
2022-12-20T23:53:40.044Z,100324.72
2022-12-20T23:56:15.475Z,100389.53
2022-12-20T23:58:43.042Z,100381.38
